La Crescent, MN

5:07 AM CST on January 16, 2017 (GMT -0600)
In A Valley | | Change Station
Active Advisory: Winter Weather Advisory

Elev 725 ft 43.83 °N, 91.33 °W | Updated 2 seconds ago

Mostly Cloudy
Mostly Cloudy
17.8 °F
Feels Like 18 °F
N
0.0
Wind Variable Wind from NNE
Gusts 0.0 mph

Today
High -- | Low -- °F
--% Chance of Precip.
Yesterday
High -- | Low -- °F
Precip. -- in
Pressure 30.20 in
Visibility 10.0 miles
Clouds Overcast 7000 ft
Windchill 18 °F
Dew Point 14 °F
Humidity 86%
Rainfall 0.00 in
Snow Depth Not available.
7:35 AM 4:55 PM
Waning Gibbous, 82% visible
METAR KY51 161055Z AUTO 16004KT 10SM OVC070 M02/M09 A3020 RMK AO1 T10251089
Pressure 30.20 in
Visibility 10.0 miles
Clouds Overcast 7000 ft
Windchill 18 °F
Dew Point 14 °F
Humidity 86%
Rainfall 0.00 in
Snow Depth Not available.
7:35 AM 4:55 PM
Waning Gibbous, 82% visible
METAR KY51 161055Z AUTO 16004KT 10SM OVC070 M02/M09 A3020 RMK AO1 T10251089

Get Your Daily Forecast Email!

Thanks for signing up!

Be on the lookout for a verification email in your inbox.

You'll start receiving the daily forecast at 8 AM.

×

10-Day Weather Forecast

Almanac

Astronomy

Jan. 16, 2017 Rise Set
Actual Time
Civil Twilight
Nautical Twilight
Astronomical Twilight
Moon
Length of Visible Light
Length of Day
Tomorrow will be .
, % of the Moon is Illuminated

Today's Extremes

State Highs State Lows

Community

WunderPhotos

Upload Photos

1,962,540 photos uploaded!

WunderBlog® & News

Nearby

Air Quality

  Air Quality AQ Index Pollutant
Not available.

Snow Depth

Station Depth Elevation

Earthquake Activity

City Distance Mag. Time & Date
Minimum magnitude displayed is 2.5.

Coastal Water Temperatures

Place Temperature

Stations

Nearby Weather Stations

Station Location Temp. Windchill Dew Point Humidity Wind Precip. Elev Updated Type
                   

Watches & Warnings

Winter Weather Advisory
Issued: 3:42 AM CST Jan. 16, 2017 – National Weather Service

... Winter Weather Advisory remains in effect until noon CST
Tuesday...

* a wintry mix... diminishing Tuesday morning. The heaviest
precipitation will occur this afternoon and evening.

* Total snow and sleet accumulation 1 inch or less and ice
accumulation of up to 2/10 of an inch.

* The ice will result in difficult travel conditions... including
during the evening commute.

Precautionary/preparedness actions...

A Winter Weather Advisory means that periods of snow... sleet or
freezing rain will cause travel difficulties. Be prepared for
slippery roads and limited visibilities... and use caution while
driving. The latest Road conditions for the state you are calling
from can be obtained by calling 5 1 1.